Aérodrome :
LOGIN :

S'inscrire | Disclaimer

   EN    FR    IT 

 










Légende :    VFR   VFR Marginal   IFR   IFR Intensif   IFR Très Intensif
Visi : 
Plafond : 
>= 8 km
>= 3000ft
5 à 8 km
1000 à 3000 ft
1500m à 5 km
500 à 1000 ft
800 à 1500m
200 à 500 ft
< 800m
< 200 ft
Symboles :   Orages  Brouillard  Fortes neiges  Fortes précipitations  Vent > 20 kt
SIGMETs :   Divers  Orages  Givrage  Turbulence  Onde Orograph.  Cendres Volcan.






- Altitude de l'aérodrome : 364 ft


LFAQ - Albert Bray

DERNIER METAR :
  • 280900Z AUTO 32013KT 8000 -SN BKN009/// BKN015/// BKN023/// ///CB 01/01 Q1000 TEMPO 1200 SNRA BECMG 32015G25KT

METARs EXPIRÉS :
  • 280830Z AUTO 33015KT 9999 -RA FEW010/// SCT019/// BKN024/// ///CB 03/02 Q1000 TEMPO 1200 SNRA BKN007 BKN025CB BECMG 32016G28KT
  • 280800Z AUTO 32014KT 9999 RA FEW009/// BKN024/// BKN044/// ///CB 03/02 Q0999 TEMPO 1200 SNRA BKN007 BKN025CB BECMG 32016G28KT
  • 280730Z AUTO 31010KT 9999 SCT009/// BKN013/// BKN018/// ///TCU 02/01 Q0999 TEMPO 1200 SNRA BKN007 BKN025CB BECMG 32016G28KT
  • 280700Z AUTO 32016KT 9999 RA BKN011/// BKN024/// OVC031/// ///CB 03/02 Q0999 TEMPO 1200 SNRA BKN007 BKN025CB BECMG 32016G28KT
  • 280630Z AUTO 32014KT 9999 -RA FEW012/// SCT018/// BKN024/// ///CB 03/02 Q0998 TEMPO 1200 SNRA BKN007 BKN025CB BECMG 32016G28KT

TAF TAF LFAQ
Valide du 28 à 09h jusqu'au 28 à 18h UTC


280800Z 2809/2818 32015G25KT 9999 SCT013 BKN025
TEMPO 2809/2815 3000 RA BKN007 BKN025CB
PROB40 2809/2818 1200 SNRA



MET'MAP, la Météo Aéronautique d'un coup d'oeil ! - Copyright ORBIFLY Décembre 2007 - Disclaimer

ORBIFLY MET'MAP TEAM :

Programmation & Développement : Alexandra Zaïnal
Sur une idée originale de : Baudouin d'Aumeries
Assistance à la programmation : Marc-Olivier Méhu
Soutien technique & logistique : Manuel Goepfert

Contact : metmap@orbifly.com




SOURCES & CREDITS :

   NOAA